首页
METAR-TAF:

METAR-TAF

机场 :

Smithers, 不列颠哥伦比亚, 加拿大

纬度: 54-49N, 经度: 127-11W, 海拔: 523米

当前天气观测

该预报发布于9分钟前的10:31 UTC
风速2节,风向西转西北
温度 9°C
湿度 100%
气压 1016 hPa
能見度: 2.0公里
少量云层高于200英尺
轻雾

METAR: CYYD 191031Z AUTO 29002KT 1 1/4SM BR FEW002 09/09 A3001 RMK SLP175

时间: 03:40 (10:40 UTC)

预报

该预报发布于10小时和0分钟前的00:40 UTC
预报有效从19日的 01点(UTC)到 19日的 06点(UTC)
风速3节,风向多变
能見度: 10公里
散云层高于10000英尺
短暂存在
从 19日的 01点(UTC)到 19日的 06点(UTC)
风速15节,风向多变,有时为25节阵风
能見度: 10公里
多云层高于8000英尺, 积雨云.
附近有雷暴

TAF: CYYD 190040Z 1901/1906 VRB03KT P6SM SCT100 TEMPO 1901/1906 VRB15G25KT P6SM VCTS BKN080CB RMK NXT FCST BY 191400Z

超过4000个机场的气象观测和天气预报(METAR&TAF报告)。

可查询的气象台以黄色和红色小点在地图上表示。

将鼠标移到小点上方,可查看气象台名称。

然后点击查看天气观测和预报。

如需切换地图:点击带黑十字的绿色按钮放大地图;点击带横线的绿色按钮缩小地图;或者点击绿色箭头查看邻近地区的地图。


METAR-TAF: